KLM22J EGPH-EHAM
Flight info
| Callsign | KLM22J |
|---|---|
| Flight time | 1h 6m |
| Altitude | 25000 |
| Route | TLA Y96 OTBUN/N0454F350 DCT ERKIT N110 DOLAS L603 LAMSO |
| Aircraft | B738/M-SDE2E3FGHIRWXY/LB1 |
Departure
| Time | 2026-05-04 20:50 |
|---|---|
| Airport | Edinburgh Airport (EGPH) |
Arrival
| Time | 2026-05-04 21:56 |
|---|---|
| Airport | Amsterdam Airport Schiphol (EHAM) |
| Time | Latitude | Longitude | Altitude | Speed | Heading |
|---|---|---|---|---|---|
| 2026-05-04 19:54 | 55.94909 | -3.36499 | 115 ft | 0 kts | 148° |
| 2026-05-04 20:34 | 55.94917 | -3.36508 | 93 ft | 4 kts | 149° |
| 2026-05-04 20:34 | 55.94936 | -3.36528 | 117 ft | 4 kts | 143° |
| 2026-05-04 20:34 | 55.94949 | -3.36562 | 111 ft | 4 kts | 88° |
| 2026-05-04 20:34 | 55.94943 | -3.36606 | 111 ft | 3 kts | 60° |
| 2026-05-04 20:35 | 55.94941 | -3.36613 | 111 ft | 0 kts | 58° |
| 2026-05-04 20:43 | 55.94941 | -3.36611 | 115 ft | 1 kts | 58° |
| 2026-05-04 20:43 | 55.94960 | -3.36560 | 114 ft | 7 kts | 58° |
| 2026-05-04 20:44 | 55.94986 | -3.36484 | 114 ft | 7 kts | 58° |
| 2026-05-04 20:44 | 55.95016 | -3.36410 | 114 ft | 7 kts | 41° |
| 2026-05-04 20:44 | 55.95063 | -3.36400 | 115 ft | 7 kts | 358° |
| 2026-05-04 20:44 | 55.95105 | -3.36365 | 115 ft | 7 kts | 49° |
| 2026-05-04 20:45 | 55.95130 | -3.36294 | 115 ft | 7 kts | 57° |
| 2026-05-04 20:45 | 55.95163 | -3.36199 | 112 ft | 11 kts | 58° |
| 2026-05-04 20:45 | 55.95207 | -3.36067 | 112 ft | 13 kts | 59° |
| 2026-05-04 20:45 | 55.95253 | -3.35931 | 113 ft | 13 kts | 59° |
| 2026-05-04 20:46 | 55.95299 | -3.35799 | 114 ft | 12 kts | 58° |
| 2026-05-04 20:46 | 55.95342 | -3.35669 | 114 ft | 12 kts | 59° |
| 2026-05-04 20:46 | 55.95384 | -3.35546 | 114 ft | 10 kts | 59° |
| 2026-05-04 20:46 | 55.95417 | -3.35447 | 115 ft | 8 kts | 59° |
| 2026-05-04 20:47 | 55.95466 | -3.35410 | 115 ft | 8 kts | 346° |
| 2026-05-04 20:47 | 55.95484 | -3.35425 | 115 ft | 0 kts | 332° |
| 2026-05-04 20:48 | 55.95484 | -3.35426 | 115 ft | 1 kts | 332° |
| 2026-05-04 20:48 | 55.95516 | -3.35459 | 114 ft | 10 kts | 328° |
| 2026-05-04 20:48 | 55.95566 | -3.35553 | 112 ft | 12 kts | 271° |
| 2026-05-04 20:49 | 55.95551 | -3.35623 | 111 ft | 0 kts | 240° |
| 2026-05-04 20:49 | 55.95477 | -3.35844 | 111 ft | 56 kts | 239° |
| 2026-05-04 20:49 | 55.95146 | -3.36817 | 112 ft | 124 kts | 239° |
| 2026-05-04 20:50 | 55.94543 | -3.38583 | 371 ft | 163 kts | 239° |
| 2026-05-04 20:50 | 55.94015 | -3.40090 | 1228 ft | 155 kts | 240° |
| 2026-05-04 20:50 | 55.93437 | -3.41695 | 2062 ft | 161 kts | 243° |
| 2026-05-04 20:50 | 55.92797 | -3.43595 | 2372 ft | 195 kts | 242° |
| 2026-05-04 20:51 | 55.92046 | -3.45807 | 2619 ft | 222 kts | 242° |
| 2026-05-04 20:51 | 55.91191 | -3.48293 | 2935 ft | 246 kts | 241° |
| 2026-05-04 20:51 | 55.90278 | -3.50946 | 3700 ft | 254 kts | 242° |
| 2026-05-04 20:51 | 55.89385 | -3.53675 | 4646 ft | 256 kts | 242° |
| 2026-05-04 20:52 | 55.88489 | -3.56438 | 5510 ft | 261 kts | 241° |
| 2026-05-04 20:52 | 55.87280 | -3.58831 | 5861 ft | 265 kts | 212° |
| 2026-05-04 20:52 | 55.85495 | -3.59722 | 6554 ft | 276 kts | 183° |
| 2026-05-04 20:52 | 55.83615 | -3.58996 | 7388 ft | 282 kts | 154° |
| 2026-05-04 20:53 | 55.82144 | -3.56671 | 8155 ft | 290 kts | 123° |
| 2026-05-04 20:53 | 55.81139 | -3.53513 | 8931 ft | 296 kts | 118° |
| 2026-05-04 20:53 | 55.80094 | -3.50317 | 9677 ft | 302 kts | 133° |
| 2026-05-04 20:53 | 55.78373 | -3.48283 | 10399 ft | 299 kts | 167° |
| 2026-05-04 20:54 | 55.76340 | -3.48042 | 11191 ft | 293 kts | 186° |
| 2026-05-04 20:54 | 55.74280 | -3.47902 | 11924 ft | 301 kts | 175° |
| 2026-05-04 20:54 | 55.72203 | -3.47187 | 12682 ft | 306 kts | 169° |
| 2026-05-04 20:54 | 55.70106 | -3.46203 | 13475 ft | 310 kts | 167° |
| 2026-05-04 20:55 | 55.68020 | -3.45115 | 14175 ft | 314 kts | 166° |
| 2026-05-04 20:55 | 55.65948 | -3.43993 | 14838 ft | 318 kts | 166° |
| 2026-05-04 20:55 | 55.63821 | -3.42832 | 15513 ft | 322 kts | 166° |
| 2026-05-04 20:55 | 55.61672 | -3.41659 | 16185 ft | 325 kts | 166° |
| 2026-05-04 20:56 | 55.59498 | -3.40478 | 16850 ft | 328 kts | 167° |
| 2026-05-04 20:56 | 55.57301 | -3.39289 | 17527 ft | 332 kts | 167° |
| 2026-05-04 20:56 | 55.55080 | -3.38092 | 18196 ft | 336 kts | 167° |
| 2026-05-04 20:56 | 55.52837 | -3.36840 | 18791 ft | 341 kts | 162° |
| 2026-05-04 20:57 | 55.50820 | -3.34537 | 19350 ft | 353 kts | 136° |
| 2026-05-04 20:57 | 55.49470 | -3.30896 | 19948 ft | 360 kts | 111° |
| 2026-05-04 20:57 | 55.48859 | -3.26593 | 20537 ft | 364 kts | 101° |
| 2026-05-04 20:57 | 55.48420 | -3.22166 | 21080 ft | 369 kts | 100° |
| 2026-05-04 20:58 | 55.47995 | -3.17692 | 21655 ft | 370 kts | 100° |
| 2026-05-04 20:58 | 55.47554 | -3.13232 | 22333 ft | 370 kts | 101° |
| 2026-05-04 20:58 | 55.47085 | -3.08732 | 22830 ft | 375 kts | 102° |
| 2026-05-04 20:58 | 55.46597 | -3.04181 | 23324 ft | 380 kts | 102° |
| 2026-05-04 20:59 | 55.45963 | -2.99649 | 23820 ft | 382 kts | 111° |
| 2026-05-04 20:59 | 55.44878 | -2.95391 | 24292 ft | 382 kts | 121° |
| 2026-05-04 20:59 | 55.43570 | -2.91308 | 24765 ft | 383 kts | 122° |
| 2026-05-04 20:59 | 55.42236 | -2.87226 | 25212 ft | 386 kts | 122° |
| 2026-05-04 21:00 | 55.40895 | -2.83103 | 25645 ft | 390 kts | 122° |
| 2026-05-04 21:00 | 55.39556 | -2.78934 | 26076 ft | 393 kts | 121° |
| 2026-05-04 21:00 | 55.38216 | -2.74728 | 26527 ft | 395 kts | 121° |
| 2026-05-04 21:00 | 55.36873 | -2.70510 | 27016 ft | 396 kts | 121° |
| 2026-05-04 21:01 | 55.35522 | -2.66280 | 27013 ft | 397 kts | 121° |
| 2026-05-04 21:01 | 55.34172 | -2.62081 | 27039 ft | 393 kts | 121° |
| 2026-05-04 21:01 | 55.32825 | -2.57906 | 27037 ft | 392 kts | 121° |
| 2026-05-04 21:01 | 55.31478 | -2.53734 | 27046 ft | 394 kts | 122° |
| 2026-05-04 21:02 | 55.30124 | -2.49550 | 27043 ft | 394 kts | 122° |
| 2026-05-04 21:02 | 55.28703 | -2.45443 | 27022 ft | 394 kts | 129° |
| 2026-05-04 21:02 | 55.26932 | -2.41813 | 27036 ft | 390 kts | 139° |
| 2026-05-04 21:02 | 55.24863 | -2.38781 | 27045 ft | 387 kts | 146° |
| 2026-05-04 21:03 | 55.22712 | -2.35939 | 27027 ft | 387 kts | 146° |
| 2026-05-04 21:03 | 55.20553 | -2.33130 | 27025 ft | 386 kts | 146° |
| 2026-05-04 21:03 | 55.18398 | -2.30330 | 27027 ft | 386 kts | 146° |
| 2026-05-04 21:03 | 55.16250 | -2.27529 | 27021 ft | 385 kts | 146° |
| 2026-05-04 21:04 | 55.14111 | -2.24729 | 27024 ft | 384 kts | 146° |
| 2026-05-04 21:04 | 55.11979 | -2.21932 | 27020 ft | 383 kts | 146° |
| 2026-05-04 21:04 | 55.09855 | -2.19139 | 27036 ft | 382 kts | 146° |
| 2026-05-04 21:04 | 55.07701 | -2.16311 | 27048 ft | 393 kts | 146° |
| 2026-05-04 21:05 | 55.05482 | -2.13401 | 27053 ft | 405 kts | 146° |
| 2026-05-04 21:05 | 55.03203 | -2.10414 | 27056 ft | 416 kts | 145° |
| 2026-05-04 21:05 | 55.00858 | -2.07344 | 27054 ft | 426 kts | 145° |
| 2026-05-04 21:05 | 54.98462 | -2.04209 | 27051 ft | 436 kts | 145° |
| 2026-05-04 21:06 | 54.96013 | -2.01008 | 27053 ft | 445 kts | 144° |
| 2026-05-04 21:06 | 54.93515 | -1.97747 | 27058 ft | 453 kts | 144° |
| 2026-05-04 21:06 | 54.90972 | -1.94432 | 27049 ft | 461 kts | 144° |
| 2026-05-04 21:06 | 54.88385 | -1.91065 | 27049 ft | 467 kts | 144° |
| 2026-05-04 21:07 | 54.85777 | -1.87676 | 27041 ft | 469 kts | 144° |
| 2026-05-04 21:07 | 54.83166 | -1.84289 | 27033 ft | 469 kts | 144° |
| 2026-05-04 21:07 | 54.80555 | -1.80908 | 27031 ft | 468 kts | 145° |
| 2026-05-04 21:07 | 54.77948 | -1.77538 | 27035 ft | 467 kts | 145° |
| 2026-05-04 21:08 | 54.75344 | -1.74179 | 27044 ft | 467 kts | 145° |
| 2026-05-04 21:08 | 54.72743 | -1.70830 | 27020 ft | 465 kts | 144° |
| 2026-05-04 21:08 | 54.70148 | -1.67494 | 27030 ft | 463 kts | 144° |
| 2026-05-04 21:08 | 54.67566 | -1.64180 | 27036 ft | 462 kts | 144° |
| 2026-05-04 21:09 | 54.64988 | -1.60875 | 27044 ft | 460 kts | 144° |
| 2026-05-04 21:09 | 54.62417 | -1.57585 | 27045 ft | 459 kts | 144° |
| 2026-05-04 21:09 | 54.59855 | -1.54313 | 27047 ft | 458 kts | 144° |
| 2026-05-04 21:09 | 54.57294 | -1.51047 | 27049 ft | 458 kts | 144° |
| 2026-05-04 21:10 | 54.54734 | -1.47788 | 27048 ft | 458 kts | 144° |
| 2026-05-04 21:10 | 54.52169 | -1.44528 | 27049 ft | 458 kts | 144° |
| 2026-05-04 21:10 | 54.49608 | -1.41277 | 27050 ft | 458 kts | 144° |
| 2026-05-04 21:10 | 54.47044 | -1.38028 | 27054 ft | 458 kts | 144° |
| 2026-05-04 21:11 | 54.44480 | -1.34785 | 27056 ft | 457 kts | 144° |
| 2026-05-04 21:11 | 54.41915 | -1.31544 | 27048 ft | 457 kts | 144° |
| 2026-05-04 21:11 | 54.39352 | -1.28312 | 27045 ft | 457 kts | 144° |
| 2026-05-04 21:11 | 54.36788 | -1.25083 | 27045 ft | 457 kts | 144° |
| 2026-05-04 21:12 | 54.34227 | -1.21863 | 27039 ft | 457 kts | 144° |
| 2026-05-04 21:12 | 54.31660 | -1.18641 | 27042 ft | 457 kts | 144° |
| 2026-05-04 21:12 | 54.29101 | -1.15433 | 27047 ft | 456 kts | 144° |
| 2026-05-04 21:12 | 54.26538 | -1.12226 | 27044 ft | 456 kts | 144° |
| 2026-05-04 21:13 | 54.23973 | -1.09022 | 27048 ft | 456 kts | 143° |
| 2026-05-04 21:13 | 54.21411 | -1.05826 | 27052 ft | 456 kts | 144° |
| 2026-05-04 21:13 | 54.18847 | -1.02633 | 27046 ft | 456 kts | 144° |
| 2026-05-04 21:13 | 54.16288 | -0.99450 | 27041 ft | 455 kts | 144° |
| 2026-05-04 21:14 | 54.13730 | -0.96274 | 27038 ft | 455 kts | 144° |
| 2026-05-04 21:14 | 54.11133 | -0.93054 | 27041 ft | 455 kts | 144° |
| 2026-05-04 21:14 | 54.08611 | -0.89931 | 27043 ft | 455 kts | 144° |
| 2026-05-04 21:14 | 54.06054 | -0.86770 | 27041 ft | 454 kts | 144° |
| 2026-05-04 21:15 | 54.03460 | -0.83570 | 27042 ft | 454 kts | 144° |
| 2026-05-04 21:15 | 54.00887 | -0.80447 | 27044 ft | 454 kts | 145° |
| 2026-05-04 21:15 | 53.98289 | -0.77385 | 27051 ft | 454 kts | 145° |
| 2026-05-04 21:15 | 53.95691 | -0.74358 | 27052 ft | 453 kts | 145° |
| 2026-05-04 21:16 | 53.93060 | -0.71300 | 27041 ft | 452 kts | 145° |
| 2026-05-04 21:16 | 53.90466 | -0.68282 | 27041 ft | 452 kts | 145° |
| 2026-05-04 21:16 | 53.87875 | -0.65263 | 27043 ft | 451 kts | 145° |
| 2026-05-04 21:16 | 53.85289 | -0.62247 | 27054 ft | 451 kts | 145° |
| 2026-05-04 21:17 | 53.82707 | -0.59237 | 27060 ft | 451 kts | 145° |
| 2026-05-04 21:17 | 53.80127 | -0.56233 | 27061 ft | 450 kts | 145° |
| 2026-05-04 21:17 | 53.77541 | -0.53227 | 27062 ft | 450 kts | 145° |
| 2026-05-04 21:17 | 53.74963 | -0.50233 | 27066 ft | 450 kts | 145° |
| 2026-05-04 21:18 | 53.72380 | -0.47239 | 27077 ft | 450 kts | 145° |
| 2026-05-04 21:18 | 53.69799 | -0.44255 | 27075 ft | 449 kts | 145° |
| 2026-05-04 21:18 | 53.67219 | -0.41288 | 27073 ft | 449 kts | 145° |
| 2026-05-04 21:18 | 53.64634 | -0.38327 | 27076 ft | 449 kts | 145° |
| 2026-05-04 21:19 | 53.62052 | -0.35374 | 27075 ft | 449 kts | 145° |
| 2026-05-04 21:19 | 53.59481 | -0.32397 | 27075 ft | 448 kts | 143° |
| 2026-05-04 21:19 | 53.57114 | -0.28992 | 27071 ft | 448 kts | 134° |
| 2026-05-04 21:19 | 53.55123 | -0.24989 | 27079 ft | 447 kts | 126° |
| 2026-05-04 21:20 | 53.53277 | -0.20786 | 27078 ft | 447 kts | 126° |
| 2026-05-04 21:20 | 53.51436 | -0.16576 | 27070 ft | 447 kts | 126° |
| 2026-05-04 21:20 | 53.49587 | -0.12378 | 27069 ft | 447 kts | 126° |
| 2026-05-04 21:20 | 53.47728 | -0.08195 | 27068 ft | 447 kts | 126° |
| 2026-05-04 21:21 | 53.45860 | -0.04025 | 27063 ft | 447 kts | 127° |
| 2026-05-04 21:21 | 53.43983 | 0.00142 | 27056 ft | 448 kts | 127° |
| 2026-05-04 21:21 | 53.42102 | 0.04303 | 27049 ft | 448 kts | 127° |
| 2026-05-04 21:21 | 53.40220 | 0.08470 | 27052 ft | 449 kts | 127° |
| 2026-05-04 21:22 | 53.38337 | 0.12647 | 27053 ft | 449 kts | 127° |
| 2026-05-04 21:22 | 53.36450 | 0.16811 | 27056 ft | 450 kts | 127° |
| 2026-05-04 21:22 | 53.34551 | 0.20980 | 27056 ft | 450 kts | 127° |
| 2026-05-04 21:22 | 53.32653 | 0.25139 | 27055 ft | 450 kts | 127° |
| 2026-05-04 21:23 | 53.30748 | 0.29304 | 27056 ft | 451 kts | 127° |
| 2026-05-04 21:23 | 53.28839 | 0.33471 | 27054 ft | 451 kts | 127° |
| 2026-05-04 21:23 | 53.27550 | 0.36285 | 27054 ft | 451 kts | 127° |
| 2026-05-04 21:23 | 53.25641 | 0.40449 | 27055 ft | 452 kts | 127° |
| 2026-05-04 21:24 | 53.23729 | 0.44608 | 27043 ft | 453 kts | 129° |
| 2026-05-04 21:24 | 53.21808 | 0.48780 | 27045 ft | 454 kts | 129° |
| 2026-05-04 21:24 | 53.19906 | 0.52903 | 27052 ft | 455 kts | 129° |
| 2026-05-04 21:24 | 53.17943 | 0.57148 | 27053 ft | 457 kts | 129° |
| 2026-05-04 21:25 | 53.15367 | 0.62717 | 27062 ft | 459 kts | 129° |
| 2026-05-04 21:25 | 53.14072 | 0.65510 | 27062 ft | 460 kts | 129° |
| 2026-05-04 21:25 | 53.12083 | 0.69794 | 27062 ft | 462 kts | 129° |
| 2026-05-04 21:25 | 53.10141 | 0.73968 | 27060 ft | 463 kts | 129° |
| 2026-05-04 21:26 | 53.08165 | 0.78207 | 27056 ft | 464 kts | 130° |
| 2026-05-04 21:26 | 53.06184 | 0.82446 | 27060 ft | 465 kts | 130° |
| 2026-05-04 21:26 | 53.04200 | 0.86687 | 27056 ft | 465 kts | 130° |
| 2026-05-04 21:26 | 53.02218 | 0.90919 | 27056 ft | 464 kts | 130° |
| 2026-05-04 21:27 | 53.00247 | 0.95169 | 27047 ft | 464 kts | 128° |
| 2026-05-04 21:27 | 52.98592 | 0.99785 | 27054 ft | 467 kts | 118° |
| 2026-05-04 21:27 | 52.97368 | 1.04779 | 27058 ft | 469 kts | 109° |
| 2026-05-04 21:27 | 52.96612 | 1.10049 | 27062 ft | 470 kts | 102° |
| 2026-05-04 21:28 | 52.96021 | 1.15378 | 27050 ft | 470 kts | 102° |
| 2026-05-04 21:28 | 52.95446 | 1.20707 | 27048 ft | 469 kts | 102° |
| 2026-05-04 21:28 | 52.94863 | 1.26033 | 27053 ft | 469 kts | 102° |
| 2026-05-04 21:28 | 52.94259 | 1.31416 | 27057 ft | 468 kts | 102° |
| 2026-05-04 21:29 | 52.93658 | 1.36648 | 27061 ft | 468 kts | 102° |
| 2026-05-04 21:29 | 52.93038 | 1.41938 | 27056 ft | 468 kts | 103° |
| 2026-05-04 21:29 | 52.92411 | 1.47235 | 27053 ft | 468 kts | 103° |
| 2026-05-04 21:29 | 52.91780 | 1.52523 | 27048 ft | 468 kts | 103° |
| 2026-05-04 21:30 | 52.91145 | 1.57820 | 27050 ft | 468 kts | 103° |
| 2026-05-04 21:30 | 52.90500 | 1.63181 | 27055 ft | 468 kts | 103° |
| 2026-05-04 21:30 | 52.89870 | 1.68399 | 27056 ft | 468 kts | 103° |
| 2026-05-04 21:30 | 52.89228 | 1.73687 | 27060 ft | 469 kts | 103° |
| 2026-05-04 21:31 | 52.87927 | 1.84274 | 27055 ft | 469 kts | 103° |
| 2026-05-04 21:31 | 52.87275 | 1.89567 | 27055 ft | 470 kts | 103° |
| 2026-05-04 21:31 | 52.86624 | 1.94861 | 27055 ft | 470 kts | 103° |
| 2026-05-04 21:32 | 52.85970 | 2.00167 | 27059 ft | 470 kts | 103° |
| 2026-05-04 21:32 | 52.85314 | 2.05462 | 27047 ft | 470 kts | 104° |
| 2026-05-04 21:32 | 52.84655 | 2.10766 | 27048 ft | 470 kts | 103° |
| 2026-05-04 21:32 | 52.83995 | 2.16060 | 27051 ft | 470 kts | 104° |
| 2026-05-04 21:33 | 52.83331 | 2.21355 | 27053 ft | 470 kts | 104° |
| 2026-05-04 21:33 | 52.82666 | 2.26649 | 27046 ft | 466 kts | 104° |
| 2026-05-04 21:33 | 52.82011 | 2.31848 | 26688 ft | 459 kts | 104° |
| 2026-05-04 21:33 | 52.81365 | 2.36954 | 26240 ft | 451 kts | 104° |
| 2026-05-04 21:34 | 52.80723 | 2.42007 | 25719 ft | 447 kts | 104° |
| 2026-05-04 21:34 | 52.80084 | 2.47007 | 25223 ft | 443 kts | 104° |
| 2026-05-04 21:34 | 52.79449 | 2.51959 | 24701 ft | 440 kts | 104° |
| 2026-05-04 21:34 | 52.78811 | 2.56898 | 24157 ft | 439 kts | 104° |
| 2026-05-04 21:35 | 52.78173 | 2.61815 | 23643 ft | 438 kts | 103° |
| 2026-05-04 21:35 | 52.77534 | 2.66727 | 23057 ft | 436 kts | 103° |
| 2026-05-04 21:35 | 52.76901 | 2.71596 | 22507 ft | 432 kts | 103° |
| 2026-05-04 21:35 | 52.76271 | 2.76415 | 22008 ft | 427 kts | 103° |
| 2026-05-04 21:36 | 52.75646 | 2.81185 | 21505 ft | 423 kts | 103° |
| 2026-05-04 21:36 | 52.75038 | 2.85900 | 21033 ft | 418 kts | 103° |
| 2026-05-04 21:36 | 52.74439 | 2.90575 | 20538 ft | 414 kts | 103° |
| 2026-05-04 21:36 | 52.73844 | 2.95202 | 20055 ft | 411 kts | 103° |
| 2026-05-04 21:37 | 52.73173 | 2.99760 | 19562 ft | 406 kts | 111° |
| 2026-05-04 21:37 | 52.71860 | 3.03887 | 19127 ft | 398 kts | 123° |
| 2026-05-04 21:37 | 52.70434 | 3.07784 | 18643 ft | 396 kts | 122° |
| 2026-05-04 21:37 | 52.69033 | 3.11666 | 18156 ft | 393 kts | 122° |
| 2026-05-04 21:38 | 52.67653 | 3.15539 | 17628 ft | 390 kts | 122° |
| 2026-05-04 21:38 | 52.66293 | 3.19385 | 17134 ft | 387 kts | 122° |
| 2026-05-04 21:38 | 52.64948 | 3.23200 | 16651 ft | 384 kts | 121° |
| 2026-05-04 21:38 | 52.63617 | 3.26981 | 16185 ft | 380 kts | 121° |
| 2026-05-04 21:39 | 52.62296 | 3.30727 | 15810 ft | 376 kts | 121° |
| 2026-05-04 21:39 | 52.60993 | 3.34416 | 15537 ft | 370 kts | 121° |
| 2026-05-04 21:39 | 52.59697 | 3.38074 | 15103 ft | 371 kts | 121° |
| 2026-05-04 21:39 | 52.58471 | 3.41848 | 14643 ft | 378 kts | 111° |
| 2026-05-04 21:40 | 52.57902 | 3.46076 | 14208 ft | 378 kts | 99° |
| 2026-05-04 21:40 | 52.57496 | 3.50334 | 13720 ft | 376 kts | 99° |
| 2026-05-04 21:40 | 52.57081 | 3.54557 | 13205 ft | 373 kts | 99° |
| 2026-05-04 21:40 | 52.56655 | 3.58751 | 12732 ft | 370 kts | 100° |
| 2026-05-04 21:41 | 52.56222 | 3.62894 | 12258 ft | 366 kts | 100° |
| 2026-05-04 21:41 | 52.55786 | 3.67000 | 11796 ft | 363 kts | 100° |
| 2026-05-04 21:41 | 52.55349 | 3.71068 | 11350 ft | 360 kts | 101° |
| 2026-05-04 21:41 | 52.54913 | 3.75103 | 10955 ft | 356 kts | 101° |
| 2026-05-04 21:42 | 52.54487 | 3.79035 | 10817 ft | 344 kts | 101° |
| 2026-05-04 21:42 | 52.54073 | 3.82846 | 10656 ft | 334 kts | 101° |
| 2026-05-04 21:42 | 52.53670 | 3.86545 | 10516 ft | 324 kts | 101° |
| 2026-05-04 21:42 | 52.53278 | 3.90138 | 10379 ft | 315 kts | 101° |
| 2026-05-04 21:43 | 52.52894 | 3.93625 | 10244 ft | 306 kts | 101° |
| 2026-05-04 21:43 | 52.52506 | 3.97012 | 10113 ft | 298 kts | 105° |
| 2026-05-04 21:43 | 52.51871 | 4.00182 | 9977 ft | 288 kts | 113° |
| 2026-05-04 21:43 | 52.51107 | 4.03216 | 9680 ft | 286 kts | 114° |
| 2026-05-04 21:44 | 52.50332 | 4.06207 | 9406 ft | 284 kts | 114° |
| 2026-05-04 21:44 | 52.49570 | 4.09181 | 9122 ft | 282 kts | 114° |
| 2026-05-04 21:44 | 52.48823 | 4.12144 | 8824 ft | 280 kts | 113° |
| 2026-05-04 21:44 | 52.48088 | 4.15093 | 8555 ft | 278 kts | 113° |
| 2026-05-04 21:45 | 52.47361 | 4.18029 | 8273 ft | 277 kts | 113° |
| 2026-05-04 21:45 | 52.46643 | 4.20942 | 8001 ft | 275 kts | 113° |
| 2026-05-04 21:45 | 52.45930 | 4.23841 | 7727 ft | 273 kts | 113° |
| 2026-05-04 21:45 | 52.45222 | 4.26723 | 7452 ft | 272 kts | 113° |
| 2026-05-04 21:46 | 52.44513 | 4.29596 | 7181 ft | 271 kts | 112° |
| 2026-05-04 21:46 | 52.43800 | 4.32488 | 6906 ft | 269 kts | 112° |
| 2026-05-04 21:46 | 52.43076 | 4.35306 | 6639 ft | 268 kts | 119° |
| 2026-05-04 21:46 | 52.41843 | 4.37527 | 6343 ft | 265 kts | 150° |
| 2026-05-04 21:47 | 52.40126 | 4.38460 | 6082 ft | 260 kts | 176° |
| 2026-05-04 21:47 | 52.38332 | 4.38393 | 5817 ft | 257 kts | 185° |
| 2026-05-04 21:47 | 52.36555 | 4.38140 | 5541 ft | 256 kts | 186° |
| 2026-05-04 21:47 | 52.34800 | 4.37883 | 5260 ft | 250 kts | 185° |
| 2026-05-04 21:48 | 52.33095 | 4.37647 | 5001 ft | 242 kts | 186° |
| 2026-05-04 21:48 | 52.31441 | 4.37426 | 4752 ft | 235 kts | 185° |
| 2026-05-04 21:48 | 52.29840 | 4.37220 | 4555 ft | 225 kts | 185° |
| 2026-05-04 21:48 | 52.28323 | 4.37027 | 4437 ft | 212 kts | 185° |
| 2026-05-04 21:49 | 52.26891 | 4.36845 | 4334 ft | 201 kts | 185° |
| 2026-05-04 21:49 | 52.25509 | 4.36670 | 4264 ft | 199 kts | 185° |
| 2026-05-04 21:49 | 52.24134 | 4.36808 | 4191 ft | 199 kts | 157° |
| 2026-05-04 21:49 | 52.23181 | 4.38284 | 4022 ft | 186 kts | 115° |
| 2026-05-04 21:50 | 52.22643 | 4.40152 | 3850 ft | 179 kts | 114° |
| 2026-05-04 21:50 | 52.22131 | 4.41946 | 3655 ft | 170 kts | 114° |
| 2026-05-04 21:50 | 52.21647 | 4.43634 | 3586 ft | 157 kts | 114° |
| 2026-05-04 21:50 | 52.21179 | 4.45264 | 3470 ft | 158 kts | 114° |
| 2026-05-04 21:51 | 52.20861 | 4.46973 | 3368 ft | 160 kts | 91° |
| 2026-05-04 21:51 | 52.20848 | 4.48806 | 3214 ft | 159 kts | 90° |
| 2026-05-04 21:51 | 52.20820 | 4.50597 | 3041 ft | 156 kts | 89° |
| 2026-05-04 21:51 | 52.20834 | 4.52339 | 2936 ft | 150 kts | 77° |
| 2026-05-04 21:52 | 52.21332 | 4.53846 | 2833 ft | 157 kts | 54° |
| 2026-05-04 21:52 | 52.21906 | 4.55345 | 2623 ft | 153 kts | 58° |
| 2026-05-04 21:52 | 52.22452 | 4.56814 | 2407 ft | 148 kts | 57° |
| 2026-05-04 21:52 | 52.22977 | 4.58200 | 2203 ft | 139 kts | 57° |
| 2026-05-04 21:53 | 52.23487 | 4.59538 | 2030 ft | 142 kts | 56° |
| 2026-05-04 21:53 | 52.24015 | 4.60922 | 1840 ft | 143 kts | 58° |
| 2026-05-04 21:53 | 52.24538 | 4.62292 | 1641 ft | 141 kts | 56° |
| 2026-05-04 21:53 | 52.25053 | 4.63641 | 1442 ft | 138 kts | 56° |
| 2026-05-04 21:54 | 52.25561 | 4.64968 | 1247 ft | 139 kts | 56° |
| 2026-05-04 21:54 | 52.26071 | 4.66302 | 1056 ft | 141 kts | 56° |
| 2026-05-04 21:54 | 52.26581 | 4.67636 | 871 ft | 139 kts | 55° |
| 2026-05-04 21:54 | 52.27093 | 4.68974 | 718 ft | 140 kts | 56° |
| 2026-05-04 21:55 | 52.27609 | 4.70352 | 512 ft | 140 kts | 54° |
| 2026-05-04 21:55 | 52.28140 | 4.71714 | 339 ft | 142 kts | 55° |
| 2026-05-04 21:55 | 52.28676 | 4.73121 | 115 ft | 146 kts | 56° |
| 2026-05-04 21:55 | 52.29056 | 4.74104 | 14 ft | 142 kts | 55° |
| 2026-05-04 21:56 | 52.29521 | 4.75313 | -3 ft | 110 kts | 58° |
| 2026-05-04 21:56 | 52.29849 | 4.76163 | -5 ft | 67 kts | 58° |
| 2026-05-04 21:56 | 52.29994 | 4.76498 | -3 ft | 17 kts | 39° |
| 2026-05-04 21:56 | 52.30097 | 4.76598 | -2 ft | 18 kts | 26° |
| 2026-05-04 21:57 | 52.30197 | 4.76682 | -2 ft | 14 kts | 27° |
| 2026-05-04 21:57 | 52.30208 | 4.76691 | -2 ft | 0 kts | 27° |
| 2026-05-04 21:58 | 52.30219 | 4.76702 | -2 ft | 4 kts | 29° |
| 2026-05-04 21:58 | 52.30251 | 4.76731 | -2 ft | 6 kts | 29° |
| 2026-05-04 21:59 | 52.30298 | 4.76742 | -2 ft | 7 kts | 354° |
| 2026-05-04 21:59 | 52.30338 | 4.76704 | -2 ft | 7 kts | 304° |
| 2026-05-04 21:59 | 52.30351 | 4.76630 | -2 ft | 7 kts | 284° |
| 2026-05-04 21:59 | 52.30378 | 4.76569 | -2 ft | 7 kts | 318° |
| 2026-05-04 22:00 | 52.30421 | 4.76524 | -2 ft | 7 kts | 329° |
| 2026-05-04 22:00 | 52.30461 | 4.76484 | -2 ft | 3 kts | 330° |
| 2026-05-04 22:00 | 52.30480 | 4.76492 | -2 ft | 3 kts | 38° |
| 2026-05-04 22:00 | 52.30493 | 4.76517 | -2 ft | 3 kts | 55° |
| 2026-05-04 22:01 | 52.30504 | 4.76545 | -2 ft | 3 kts | 58° |
| 2026-05-04 22:01 | 52.30506 | 4.76551 | -2 ft | 0 kts | 58° |